createdAt,value
2019-04-16T00:01:35.129Z,95.60
2019-04-16T00:07:18.138Z,95.40
2019-04-16T00:10:06.781Z,95.50
2019-04-16T00:12:42.896Z,95.40
2019-04-16T00:15:11.760Z,95.40
2019-04-16T00:17:44.344Z,95.20
2019-04-16T00:20:13.080Z,95.30
2019-04-16T00:22:43.618Z,95.40
2019-04-16T00:25:12.600Z,95.70
2019-04-16T00:27:41.549Z,95.70
2019-04-16T00:30:10.776Z,96.10
2019-04-16T00:32:42.499Z,95.70
2019-04-16T00:35:10.259Z,95.60
2019-04-16T00:37:39.198Z,95.40
2019-04-16T00:40:08.257Z,95.60
2019-04-16T00:42:37.198Z,95.40
2019-04-16T00:45:06.343Z,95.50
2019-04-16T00:47:35.311Z,95.20
2019-04-16T00:50:14.377Z,95.00
2019-04-16T00:52:43.367Z,95.10
2019-04-16T00:55:14.589Z,95.40
2019-04-16T00:57:48.741Z,95.60
2019-04-16T01:00:18.368Z,95.60
2019-04-16T01:05:46.377Z,95.60
2019-04-16T01:16:48.171Z,95.60
2019-04-16T01:19:41.825Z,95.40
2019-04-16T01:22:10.797Z,95.40
2019-04-16T01:24:41.303Z,95.50
2019-04-16T01:27:10.520Z,95.40
2019-04-16T01:29:39.475Z,95.60
2019-04-16T01:32:32.587Z,95.60
2019-04-16T01:35:19.788Z,95.60
2019-04-16T01:38:09.546Z,95.70
2019-04-16T01:40:40.277Z,95.60
2019-04-16T01:43:09.388Z,95.60
2019-04-16T01:45:38.427Z,95.60
2019-04-16T01:48:08.242Z,95.60
2019-04-16T01:50:37.327Z,95.60
2019-04-16T01:53:12.158Z,95.60
2019-04-16T01:55:50.696Z,95.60
2019-04-16T01:58:24.905Z,95.60
2019-04-16T02:01:01.113Z,95.60
2019-04-16T02:03:30.149Z,95.70
2019-04-16T02:06:03.194Z,95.40
2019-04-16T02:08:31.133Z,95.40
2019-04-16T02:11:00.801Z,95.40
2019-04-16T02:13:32.754Z,95.50
2019-04-16T02:16:01.861Z,95.60
2019-04-16T02:18:30.813Z,95.50
2019-04-16T02:21:01.199Z,95.60
2019-04-16T02:23:30.104Z,95.60
2019-04-16T02:25:59.057Z,95.60
2019-04-16T02:28:28.987Z,95.80
2019-04-16T02:30:58.024Z,95.60
2019-04-16T02:33:26.977Z,95.40
2019-04-16T02:35:55.854Z,95.60
2019-04-16T02:38:24.751Z,95.60
2019-04-16T02:40:53.698Z,95.70
2019-04-16T02:43:22.739Z,95.80
2019-04-16T02:45:56.750Z,95.70
2019-04-16T02:48:22.400Z,95.70
2019-04-16T02:50:53.028Z,95.80
2019-04-16T02:53:38.302Z,95.90
2019-04-16T02:56:19.115Z,96.00
2019-04-16T02:58:49.863Z,95.80
2019-04-16T03:01:32.346Z,96.00
2019-04-16T03:04:06.025Z,96.00
2019-04-16T03:06:35.361Z,96.20
2019-04-16T03:09:08.967Z,96.10
2019-04-16T03:11:36.774Z,96.30
2019-04-16T03:14:05.712Z,96.50
2019-04-16T03:16:38.089Z,96.60
2019-04-16T03:19:08.456Z,96.50
2019-04-16T03:21:37.406Z,96.70
2019-04-16T03:24:09.097Z,96.60
2019-04-16T03:26:36.906Z,96.80
2019-04-16T03:29:05.872Z,96.70
2019-04-16T03:31:34.758Z,96.80
2019-04-16T03:34:03.886Z,96.70
2019-04-16T03:36:32.862Z,96.80
2019-04-16T03:39:01.822Z,96.90
2019-04-16T03:41:30.723Z,97.00
2019-04-16T03:44:03.635Z,97.00
2019-04-16T03:46:30.225Z,96.90
2019-04-16T03:48:59.177Z,96.80
2019-04-16T03:51:28.106Z,96.90
2019-04-16T03:53:57.068Z,97.10
2019-04-16T03:56:27.576Z,97.00
2019-04-16T03:58:56.680Z,97.00
2019-04-16T04:01:25.585Z,97.10
2019-04-16T04:03:57.436Z,97.10
2019-04-16T04:06:25.053Z,97.00
2019-04-16T04:08:54.003Z,96.90
2019-04-16T04:11:22.948Z,96.90
2019-04-16T04:13:51.891Z,97.10
2019-04-16T04:16:20.771Z,97.00
2019-04-16T04:18:49.742Z,96.90
2019-04-16T04:21:26.067Z,96.90
2019-04-16T04:23:57.524Z,96.80
2019-04-16T04:26:25.630Z,97.00
2019-04-16T04:28:54.581Z,97.10
2019-04-16T04:31:23.519Z,97.00
2019-04-16T04:33:52.474Z,97.10
2019-04-16T04:36:31.493Z,97.00
2019-04-16T04:39:00.455Z,97.10
2019-04-16T04:41:29.400Z,97.10
2019-04-16T04:44:04.028Z,97.40
2019-04-16T04:46:28.852Z,97.30
2019-04-16T04:49:00.160Z,97.70
2019-04-16T04:51:28.385Z,97.60
2019-04-16T04:53:57.256Z,97.60
2019-04-16T04:56:32.319Z,97.30
2019-04-16T04:58:56.798Z,97.30
2019-04-16T05:01:25.755Z,97.30
2019-04-16T05:04:02.026Z,97.40
2019-04-16T05:06:38.721Z,97.40
2019-04-16T05:09:07.862Z,97.40
2019-04-16T05:11:36.773Z,97.50
2019-04-16T05:14:07.318Z,97.50
2019-04-16T05:16:36.204Z,97.60
2019-04-16T05:19:05.162Z,97.60
2019-04-16T05:21:34.055Z,97.60
2019-04-16T05:24:03.019Z,97.70
2019-04-16T05:26:33.623Z,97.70
2019-04-16T05:29:16.088Z,97.70
2019-04-16T05:31:43.420Z,97.60
2019-04-16T05:34:18.281Z,97.50
2019-04-16T05:36:48.152Z,97.60
2019-04-16T05:39:17.294Z,97.60
2019-04-16T05:41:46.291Z,97.70
2019-04-16T05:44:15.205Z,97.60
2019-04-16T05:46:46.687Z,97.80
2019-04-16T05:49:14.775Z,97.90
2019-04-16T05:51:43.705Z,97.90
2019-04-16T05:54:16.870Z,97.80
2019-04-16T05:56:47.421Z,97.80
2019-04-16T05:59:16.364Z,97.70
2019-04-16T06:01:47.000Z,97.50
2019-04-16T06:04:17.436Z,97.70
2019-04-16T06:06:46.750Z,97.70
2019-04-16T06:09:16.195Z,97.70
2019-04-16T06:11:45.723Z,97.80
2019-04-16T06:14:34.760Z,97.70
2019-04-16T06:17:08.106Z,97.70
2019-04-16T06:23:39.381Z,97.80
2019-04-16T06:26:14.731Z,97.80
2019-04-16T06:28:55.083Z,97.80
2019-04-16T06:31:23.849Z,97.80
2019-04-16T06:37:23.384Z,97.80
2019-04-16T06:40:08.903Z,97.50
2019-04-16T06:42:54.839Z,97.60
2019-04-16T06:45:25.532Z,97.60
2019-04-16T06:48:04.871Z,97.50
2019-04-16T06:50:39.544Z,97.50
2019-04-16T06:53:09.218Z,97.30
2019-04-16T06:55:53.729Z,97.40
2019-04-16T06:58:29.908Z,97.40
2019-04-16T07:01:06.753Z,97.30
2019-04-16T07:03:38.726Z,97.20
2019-04-16T07:06:12.135Z,97.30
2019-04-16T07:08:49.877Z,97.50
2019-04-16T07:11:26.737Z,97.50
2019-04-16T07:13:55.700Z,97.20
2019-04-16T07:16:28.912Z,97.20
2019-04-16T07:18:56.833Z,97.20
2019-04-16T07:21:25.720Z,97.20
2019-04-16T07:23:57.984Z,97.20
2019-04-16T07:26:25.739Z,97.20
2019-04-16T07:29:11.595Z,97.30
2019-04-16T07:31:42.289Z,97.20
2019-04-16T07:34:21.911Z,97.40
2019-04-16T07:36:52.582Z,97.40
2019-04-16T07:39:29.690Z,97.30
2019-04-16T07:42:14.122Z,97.20
2019-04-16T07:45:03.731Z,97.20
2019-04-16T07:47:43.098Z,97.30
2019-04-16T07:50:32.282Z,97.20
2019-04-16T07:53:02.251Z,97.30
2019-04-16T07:55:41.400Z,97.30
2019-04-16T07:58:10.303Z,97.30
2019-04-16T08:00:41.289Z,97.30
2019-04-16T08:03:10.181Z,97.00
2019-04-16T08:05:41.259Z,97.30
2019-04-16T08:08:09.750Z,97.00
2019-04-16T08:10:58.526Z,97.30
2019-04-16T08:17:05.078Z,97.30
2019-04-16T09:30:46.683Z,95.90
2019-04-16T09:33:09.250Z,95.90
2019-04-16T09:39:24.893Z,95.60
2019-04-16T09:42:59.531Z,95.90
2019-04-16T09:45:11.596Z,95.60
2019-04-16T09:48:08.221Z,95.30
2019-04-16T09:50:48.080Z,95.10
2019-04-16T10:05:35.767Z,94.30
2019-04-16T10:08:44.540Z,94.90
2019-04-16T10:14:10.343Z,94.40
2019-04-16T10:16:55.471Z,94.60
2019-04-16T10:27:15.167Z,94.70
2019-04-16T10:28:29.428Z,94.50
2019-04-16T10:31:28.261Z,94.30
2019-04-16T10:33:56.821Z,94.70
2019-04-16T10:36:39.286Z,94.40
2019-04-16T10:39:37.092Z,94.30
2019-04-16T10:42:32.559Z,94.20
2019-04-16T10:45:35.552Z,93.90
2019-04-16T10:48:37.683Z,94.30
2019-04-16T10:51:03.894Z,94.30
2019-04-16T10:53:40.558Z,94.60
2019-04-16T10:56:23.736Z,94.00
2019-04-16T10:59:13.361Z,93.80
2019-04-16T11:02:19.383Z,94.10
2019-04-16T11:05:08.130Z,93.70
2019-04-16T11:07:44.010Z,93.70
2019-04-16T11:10:46.725Z,93.30
2019-04-16T11:13:38.098Z,93.00
2019-04-16T11:16:19.733Z,92.60
2019-04-16T11:21:53.244Z,92.00
2019-04-16T11:24:31.216Z,92.60
2019-04-16T11:27:07.533Z,93.30
2019-04-16T11:32:25.218Z,92.20
2019-04-16T11:35:01.192Z,92.40
2019-04-16T11:37:44.436Z,92.10
2019-04-16T11:43:00.615Z,91.20
2019-04-16T11:45:35.271Z,92.10
2019-04-16T11:48:06.208Z,91.70
2019-04-16T11:53:40.798Z,90.70
2019-04-16T11:56:22.646Z,91.10
2019-04-16T11:59:07.231Z,91.20
2019-04-16T12:01:52.959Z,90.80
2019-04-16T12:04:28.222Z,90.60
2019-04-16T12:07:21.835Z,90.90
2019-04-16T12:10:13.787Z,91.10
2019-04-16T12:13:07.114Z,91.50
2019-04-16T12:15:56.157Z,92.00
2019-04-16T12:18:33.914Z,91.30
2019-04-16T12:21:12.656Z,91.60
2019-04-16T12:24:11.670Z,91.70
2019-04-16T12:26:47.772Z,92.00
2019-04-16T12:29:25.477Z,91.90
2019-04-16T12:32:19.958Z,91.90
2019-04-16T12:34:57.009Z,92.10
2019-04-16T12:37:46.416Z,91.70
2019-04-16T12:40:21.180Z,91.60
2019-04-16T12:42:58.970Z,91.50
2019-04-16T12:45:46.035Z,91.10
2019-04-16T12:48:44.539Z,91.30
2019-04-16T12:51:33.052Z,91.00
2019-04-16T12:54:39.779Z,91.10
2019-04-16T12:57:14.929Z,91.00
2019-04-16T12:59:54.763Z,91.10
2019-04-16T13:02:46.862Z,90.90
2019-04-16T13:05:21.754Z,91.00
2019-04-16T13:08:09.112Z,90.40
2019-04-16T13:10:44.513Z,90.90
2019-04-16T13:13:36.543Z,91.40
2019-04-16T13:16:17.313Z,91.60
2019-04-16T13:18:53.621Z,92.10
2019-04-16T13:21:26.954Z,92.50
2019-04-16T13:24:09.854Z,92.60
2019-04-16T13:26:44.647Z,92.30
2019-04-16T13:29:22.739Z,92.30
2019-04-16T13:31:53.605Z,92.20
2019-04-16T13:34:34.813Z,92.40
2019-04-16T13:37:04.177Z,92.60
2019-04-16T13:39:53.060Z,92.60
2019-04-16T13:42:24.147Z,92.50
2019-04-16T13:44:57.849Z,92.20
2019-04-16T13:47:37.854Z,92.20
2019-04-16T13:50:15.136Z,92.70
2019-04-16T13:52:52.001Z,92.30
2019-04-16T13:55:26.105Z,92.60
2019-04-16T13:58:05.238Z,92.40
2019-04-16T14:00:42.015Z,92.50
2019-04-16T14:03:23.719Z,92.00
2019-04-16T14:05:50.823Z,91.80
2019-04-16T14:08:29.747Z,91.40
2019-04-16T14:11:06.100Z,91.50
2019-04-16T14:13:36.507Z,91.50
2019-04-16T14:16:11.408Z,91.50
2019-04-16T14:18:37.833Z,91.60
2019-04-16T14:21:09.755Z,91.00
2019-04-16T14:25:23.193Z,91.30
2019-04-16T14:42:58.234Z,92.50
2019-04-16T14:43:58.836Z,92.20
2019-04-16T14:46:31.515Z,92.00
2019-04-16T14:49:04.897Z,91.60
2019-04-16T14:51:40.341Z,91.70
2019-04-16T14:54:24.050Z,91.80
2019-04-16T14:57:10.986Z,91.80
2019-04-16T14:59:43.859Z,92.00
2019-04-16T15:02:19.977Z,92.20
2019-04-16T15:05:05.499Z,92.10
2019-04-16T15:07:47.864Z,92.20
2019-04-16T15:10:37.649Z,91.80
2019-04-16T15:13:16.822Z,91.90
2019-04-16T15:16:05.479Z,91.90
2019-04-16T15:18:27.879Z,92.80
2019-04-16T15:21:12.391Z,92.40
2019-04-16T15:23:43.205Z,92.60
2019-04-16T15:26:16.845Z,92.10
2019-04-16T15:28:47.493Z,92.50
2019-04-16T15:31:33.709Z,92.50
2019-04-16T15:34:16.319Z,92.40
2019-04-16T15:36:55.071Z,92.10
2019-04-16T15:39:25.046Z,92.40
2019-04-16T15:42:17.468Z,92.10
2019-04-16T15:44:46.134Z,92.60
2019-04-16T15:47:32.386Z,92.40
2019-04-16T15:50:10.487Z,92.20
2019-04-16T15:52:46.269Z,92.40
2019-04-16T15:55:16.245Z,93.00
2019-04-16T15:57:55.855Z,93.10
2019-04-16T16:00:44.545Z,92.80
2019-04-16T16:03:31.593Z,92.40
2019-04-16T16:06:11.382Z,92.60
2019-04-16T16:08:44.913Z,92.70
2019-04-16T16:11:17.173Z,92.70
2019-04-16T16:13:46.130Z,92.00
2019-04-16T16:16:17.961Z,92.10
2019-04-16T16:18:45.584Z,92.60
2019-04-16T16:21:14.532Z,92.10
2019-04-16T16:23:43.619Z,92.40
2019-04-16T16:26:12.889Z,92.20
2019-04-16T16:28:41.863Z,92.50
2019-04-16T16:31:10.814Z,92.70
2019-04-16T16:33:39.769Z,92.30
2019-04-16T16:36:08.757Z,92.40
2019-04-16T16:38:37.727Z,92.30
2019-04-16T16:41:06.755Z,92.10
2019-04-16T16:43:35.633Z,92.20
2019-04-16T16:46:22.176Z,91.70
2019-04-16T16:49:09.943Z,91.70
2019-04-16T16:51:40.543Z,91.80
2019-04-16T16:54:11.122Z,91.80
2019-04-16T16:57:07.400Z,92.10
2019-04-16T16:59:34.934Z,92.20
2019-04-16T17:02:20.552Z,91.50
2019-04-16T17:04:54.325Z,90.90
2019-04-16T17:07:23.404Z,90.90
2019-04-16T17:09:52.338Z,90.60
2019-04-16T17:12:21.239Z,91.00
2019-04-16T17:14:50.231Z,91.00
2019-04-16T17:17:19.362Z,91.30
2019-04-16T17:19:50.671Z,91.10
2019-04-16T17:22:19.053Z,91.40
2019-04-16T17:24:48.035Z,91.20
2019-04-16T17:27:17.075Z,91.20
2019-04-16T17:29:46.589Z,91.20
2019-04-16T17:32:16.536Z,91.10
2019-04-16T17:34:45.552Z,91.10
2019-04-16T17:37:14.524Z,91.20
2019-04-16T17:39:52.079Z,91.30
2019-04-16T17:42:43.443Z,90.60
2019-04-16T17:45:30.828Z,90.20
2019-04-16T17:48:07.181Z,89.60
2019-04-16T17:53:35.099Z,89.80
2019-04-16T17:59:31.953Z,90.20
2019-04-16T18:02:18.646Z,90.40
2019-04-16T18:04:52.306Z,90.30
2019-04-16T18:07:39.772Z,90.10
2019-04-16T18:10:26.850Z,90.40
2019-04-16T18:12:57.472Z,90.60
2019-04-16T18:15:42.529Z,90.10
2019-04-16T18:18:25.301Z,90.50
2019-04-16T18:21:01.768Z,90.30
2019-04-16T18:23:32.297Z,90.00
2019-04-16T18:26:18.198Z,90.30
2019-04-16T18:28:54.868Z,90.50
2019-04-16T18:31:39.313Z,91.20
2019-04-16T18:34:26.634Z,90.60
2019-04-16T18:37:00.554Z,90.70
2019-04-16T18:39:31.584Z,90.30
2019-04-16T18:42:04.879Z,90.60
2019-04-16T18:44:38.253Z,90.80
2019-04-16T18:47:17.707Z,90.60
2019-04-16T18:49:48.444Z,90.40
2019-04-16T18:52:17.433Z,90.50
2019-04-16T18:54:49.370Z,90.60
2019-04-16T18:57:17.229Z,90.80
2019-04-16T18:59:46.279Z,90.90
2019-04-16T19:02:15.347Z,91.00
2019-04-16T19:04:44.442Z,91.20
2019-04-16T19:07:13.536Z,91.30
2019-04-16T19:09:42.470Z,91.20
2019-04-16T19:12:11.933Z,91.20
2019-04-16T19:14:40.919Z,91.20
2019-04-16T19:17:09.917Z,91.30
2019-04-16T19:19:44.525Z,91.30
2019-04-16T19:22:09.880Z,91.70
2019-04-16T19:24:38.863Z,92.00
2019-04-16T19:27:08.139Z,92.20
2019-04-16T19:29:37.642Z,92.30
2019-04-16T19:32:06.737Z,92.40
2019-04-16T19:34:40.983Z,92.40
2019-04-16T19:37:06.567Z,92.70
2019-04-16T19:39:35.660Z,92.30
2019-04-16T19:42:04.755Z,92.20
2019-04-16T19:44:39.647Z,92.30
2019-04-16T19:47:05.197Z,92.40
2019-04-16T19:49:34.498Z,92.20
2019-04-16T19:52:03.593Z,92.50
2019-04-16T19:54:32.698Z,92.60
2019-04-16T19:57:01.997Z,92.60
2019-04-16T19:59:31.704Z,92.70
2019-04-16T20:02:01.718Z,92.50
2019-04-16T20:04:31.336Z,92.60
2019-04-16T20:07:01.894Z,92.60
2019-04-16T20:09:31.153Z,92.60
2019-04-16T20:12:00.359Z,92.40
2019-04-16T20:14:29.746Z,92.30
2019-04-16T20:16:58.841Z,92.40
2019-04-16T20:19:28.248Z,92.40
2019-04-16T20:21:57.440Z,92.60
2019-04-16T20:24:26.535Z,92.50
2019-04-16T20:26:55.833Z,92.60
2019-04-16T20:29:25.750Z,92.60
2019-04-16T20:31:55.472Z,92.60
2019-04-16T20:34:24.757Z,92.80
2019-04-16T20:36:55.851Z,92.70
2019-04-16T20:39:24.818Z,92.90
2019-04-16T20:41:58.595Z,92.90
2019-04-16T20:44:24.633Z,92.90
2019-04-16T20:46:53.832Z,93.00
2019-04-16T20:49:23.218Z,92.80
2019-04-16T20:51:52.312Z,93.00
2019-04-16T20:54:21.433Z,92.80
2019-04-16T20:56:53.322Z,92.90
2019-04-16T20:59:21.437Z,93.10
2019-04-16T21:01:50.335Z,93.00
2019-04-16T21:04:19.526Z,93.10
2019-04-16T21:07:01.675Z,93.00
2019-04-16T21:09:30.985Z,93.20
2019-04-16T21:12:00.092Z,93.40
2019-04-16T21:14:29.321Z,93.30
2019-04-16T21:16:58.515Z,93.20
2019-04-16T21:19:46.390Z,93.20
2019-04-16T21:22:15.586Z,93.10
2019-04-16T21:24:45.327Z,93.10
2019-04-16T21:27:14.268Z,93.10
2019-04-16T21:29:43.391Z,92.90
2019-04-16T21:32:16.769Z,93.00
2019-04-16T21:34:49.520Z,93.00
2019-04-16T21:37:23.133Z,93.20
2019-04-16T21:39:59.802Z,93.10
2019-04-16T21:42:31.626Z,92.90
2019-04-16T21:45:00.646Z,92.90
2019-04-16T21:47:29.739Z,92.90
2019-04-16T21:50:00.268Z,93.00
2019-04-16T21:52:29.365Z,93.10
2019-04-16T21:55:03.037Z,93.20
2019-04-16T21:57:30.217Z,93.20
2019-04-16T21:59:59.805Z,93.30
2019-04-16T22:02:34.533Z,93.30
2019-04-16T22:05:02.825Z,93.30
2019-04-16T22:07:32.345Z,93.30
2019-04-16T22:10:02.082Z,93.00
2019-04-16T22:12:31.243Z,93.10
2019-04-16T22:15:00.331Z,93.00
2019-04-16T22:17:29.377Z,92.90
2019-04-16T22:20:03.138Z,92.90
2019-04-16T22:22:29.155Z,93.40
2019-04-16T22:24:58.437Z,93.30
2019-04-16T22:27:27.545Z,93.40
2019-04-16T22:29:56.849Z,93.60
2019-04-16T22:32:27.059Z,93.40
2019-04-16T22:34:57.288Z,93.60
2019-04-16T22:37:26.293Z,93.40
2019-04-16T22:39:59.369Z,93.40
2019-04-16T22:42:30.637Z,93.40
2019-04-16T22:45:17.830Z,93.40
2019-04-16T22:47:51.442Z,93.40
2019-04-16T22:50:20.389Z,93.50
2019-04-16T22:52:49.414Z,93.40
2019-04-16T22:55:18.307Z,93.30
2019-04-16T22:57:47.298Z,93.30
2019-04-16T23:00:30.320Z,93.00
2019-04-16T23:02:59.313Z,93.10
2019-04-16T23:05:30.758Z,93.20
2019-04-16T23:07:59.142Z,93.00
2019-04-16T23:10:28.118Z,92.80
2019-04-16T23:13:00.714Z,92.80
2019-04-16T23:15:28.474Z,92.90
2019-04-16T23:17:58.048Z,92.90
2019-04-16T23:20:29.571Z,92.90
2019-04-16T23:22:58.224Z,93.00
2019-04-16T23:25:28.104Z,93.00
2019-04-16T23:27:57.752Z,92.90
2019-04-16T23:30:27.157Z,92.90
2019-04-16T23:32:59.048Z,93.00
2019-04-16T23:35:27.194Z,92.80
2019-04-16T23:37:59.243Z,92.90
2019-04-16T23:40:27.023Z,92.80
2019-04-16T23:43:00.394Z,92.90
2019-04-16T23:45:37.089Z,92.80
2019-04-16T23:48:07.801Z,92.90
2019-04-16T23:50:45.395Z,93.10
2019-04-16T23:53:13.976Z,93.00
2019-04-16T23:55:50.454Z,93.00
2019-04-16T23:58:21.111Z,93.00
